KIZA

Santa Ynez Airport

Santa Ynez, California, USA
METAR KIZA 250035Z AUTO 25006KT 10SM OVC033 16/09 A3006 RMK AO2
Observed Flight Rules
May-25 @ 00:35 UTC (17 minutes ago) Visual Flight Rules
Wind Visibility Clouds
250° at 6 knots 10 miles
  • Overcast at 3,300' AGL
Temperatures Readings
Current 16°C / 61°F
Dewpoint 9°C / 48°F
Humidity 63%
Altimeter 30.06" Hg
Pressure 1018 hPa
Elevation 205
METAR KIZA 250035Z AUTO 25006KT 10SM OVC033 16/09 A3006 RMK AO2
Observed Flight Rules
May-25 @ 00:35 UTC
(17 minutes ago)
VFR
Wind Visibility
250° at 6 knots 10 miles
Clouds
  • Overcast at 3,300' AGL
Temperature Dewpoint
16°C / 61°F 9°C / 48°F
Humidity Altimeter Pressure
63% 30.06" Hg 1018 hPa